createdAt,value
2018-04-17T00:00:46.256Z,99.99
2018-04-17T00:01:46.288Z,99.99
2018-04-17T00:02:46.324Z,99.99
2018-04-17T00:03:46.352Z,99.99
2018-04-17T00:04:46.384Z,99.99
2018-04-17T00:05:46.415Z,99.99
2018-04-17T00:06:46.446Z,99.99
2018-04-17T00:07:46.479Z,99.99
2018-04-17T00:08:46.510Z,99.99
2018-04-17T00:09:46.542Z,99.99
2018-04-17T00:10:46.573Z,99.99
2018-04-17T00:11:46.605Z,99.99
2018-04-17T00:12:46.638Z,99.99
2018-04-17T00:13:46.669Z,99.99
2018-04-17T00:14:46.700Z,99.99
2018-04-17T00:15:46.731Z,99.99
2018-04-17T00:16:46.764Z,99.99
2018-04-17T00:17:46.794Z,99.99
2018-04-17T00:18:46.825Z,99.99
2018-04-17T00:19:46.857Z,99.99
2018-04-17T00:20:46.889Z,99.99
2018-04-17T00:21:46.922Z,99.99
2018-04-17T00:22:46.952Z,99.99
2018-04-17T00:23:46.983Z,99.99
2018-04-17T00:24:47.014Z,99.99
2018-04-17T00:25:47.045Z,99.99
2018-04-17T00:26:47.078Z,99.99
2018-04-17T00:27:47.108Z,99.99
2018-04-17T00:28:47.141Z,99.99
2018-04-17T00:29:47.171Z,99.99
2018-04-17T00:30:47.203Z,99.99
2018-04-17T00:31:47.235Z,99.99
2018-04-17T00:32:47.267Z,99.99
2018-04-17T00:33:47.297Z,99.99
2018-04-17T00:34:47.329Z,99.99
2018-04-17T00:35:47.361Z,99.99
2018-04-17T00:36:47.392Z,99.99
2018-04-17T00:37:47.423Z,99.99
2018-04-17T00:38:47.454Z,99.99
2018-04-17T00:39:47.486Z,99.99
2018-04-17T00:40:47.518Z,99.99
2018-04-17T00:41:47.547Z,99.99
2018-04-17T00:42:47.579Z,99.99
2018-04-17T00:43:47.613Z,99.99
2018-04-17T00:44:47.646Z,99.99
2018-04-17T00:45:47.674Z,99.99
2018-04-17T00:46:47.705Z,99.99
2018-04-17T00:47:47.737Z,99.99
2018-04-17T00:48:47.768Z,99.99
2018-04-17T00:49:47.800Z,99.99
2018-04-17T00:50:47.831Z,99.99
2018-04-17T00:51:47.862Z,99.99
2018-04-17T00:52:47.894Z,99.99
2018-04-17T00:53:47.928Z,99.99
2018-04-17T00:54:47.960Z,99.99
2018-04-17T00:55:47.988Z,99.99
2018-04-17T00:56:48.069Z,99.99
2018-04-17T00:57:48.051Z,99.99
2018-04-17T00:58:48.082Z,99.99
2018-04-17T00:59:48.115Z,99.99
2018-04-17T01:00:48.145Z,99.99
2018-04-17T01:01:48.178Z,99.99
2018-04-17T01:02:48.206Z,99.99
2018-04-17T01:03:48.241Z,99.99
2018-04-17T01:04:48.270Z,99.99
2018-04-17T01:05:48.300Z,99.99
2018-04-17T01:06:48.332Z,99.99
2018-04-17T01:07:48.361Z,99.99
2018-04-17T01:08:48.395Z,99.99
2018-04-17T01:09:48.425Z,99.99
2018-04-17T01:10:48.456Z,99.99
2018-04-17T01:11:48.491Z,99.99
2018-04-17T01:12:48.517Z,99.99
2018-04-17T01:13:48.549Z,99.99
2018-04-17T01:14:48.580Z,99.99
2018-04-17T01:15:48.610Z,99.99
2018-04-17T01:16:48.642Z,99.99
2018-04-17T01:17:48.673Z,99.99
2018-04-17T01:18:48.702Z,99.99
2018-04-17T01:19:48.734Z,99.99
2018-04-17T01:20:48.766Z,99.99
2018-04-17T01:21:48.795Z,99.99
2018-04-17T01:22:48.827Z,99.99
2018-04-17T01:23:48.859Z,99.99
2018-04-17T01:24:48.889Z,99.99
2018-04-17T01:25:48.921Z,99.99
2018-04-17T01:26:48.951Z,99.99
2018-04-17T01:27:48.982Z,99.99
2018-04-17T01:28:49.015Z,99.99
2018-04-17T01:29:49.043Z,99.99
2018-04-17T01:30:49.078Z,99.99
2018-04-17T01:31:49.104Z,99.99
2018-04-17T01:32:49.136Z,99.99
2018-04-17T01:33:49.166Z,99.99
2018-04-17T01:34:49.197Z,99.99
2018-04-17T01:35:49.228Z,99.99
2018-04-17T01:36:49.260Z,99.99
2018-04-17T01:37:49.292Z,99.99
2018-04-17T01:38:49.321Z,99.99
2018-04-17T01:39:49.352Z,99.99
2018-04-17T01:40:49.382Z,99.99
2018-04-17T01:41:49.414Z,99.99
2018-04-17T01:42:49.447Z,99.99
2018-04-17T01:43:49.474Z,99.99
2018-04-17T01:44:49.505Z,99.99
2018-04-17T01:45:49.536Z,99.99
2018-04-17T01:46:49.567Z,99.99
2018-04-17T01:47:49.598Z,99.99
2018-04-17T01:48:49.629Z,99.99
2018-04-17T01:49:49.660Z,99.99
2018-04-17T01:50:49.689Z,99.99
2018-04-17T01:51:49.721Z,99.99
2018-04-17T01:52:49.752Z,99.99
2018-04-17T01:53:49.783Z,99.99
2018-04-17T01:54:49.813Z,99.99
2018-04-17T01:55:49.844Z,99.99
2018-04-17T01:56:49.875Z,99.99
2018-04-17T01:57:49.906Z,99.99
2018-04-17T01:58:49.936Z,99.99
2018-04-17T01:59:49.969Z,99.99
2018-04-17T02:00:50.000Z,99.99
2018-04-17T02:01:50.032Z,99.99
2018-04-17T02:02:50.061Z,99.99
2018-04-17T02:03:50.092Z,99.99
2018-04-17T02:04:50.122Z,99.99
2018-04-17T02:05:50.152Z,99.99
2018-04-17T02:06:50.189Z,99.99
2018-04-17T02:07:50.214Z,99.99
2018-04-17T02:08:50.245Z,99.99
2018-04-17T02:09:50.274Z,99.99
2018-04-17T02:10:50.306Z,99.99
2018-04-17T02:11:50.337Z,99.99
2018-04-17T02:12:50.367Z,99.99
2018-04-17T02:13:50.398Z,99.99
2018-04-17T02:14:50.427Z,99.99
2018-04-17T02:15:50.460Z,99.99
2018-04-17T02:16:50.490Z,99.99
2018-04-17T02:17:50.520Z,99.99
2018-04-17T02:18:50.552Z,99.99
2018-04-17T02:19:50.581Z,99.99
2018-04-17T02:20:50.612Z,99.99
2018-04-17T02:21:50.641Z,99.99
2018-04-17T02:22:50.672Z,99.99
2018-04-17T02:23:50.703Z,99.99
2018-04-17T02:24:50.734Z,99.99
2018-04-17T02:25:50.764Z,99.99
2018-04-17T02:26:50.795Z,99.99
2018-04-17T02:27:50.825Z,99.99
2018-04-17T02:28:50.856Z,99.99
2018-04-17T02:29:50.886Z,99.99
2018-04-17T02:30:50.918Z,99.99
2018-04-17T02:31:50.948Z,99.99
2018-04-17T02:32:50.979Z,99.99
2018-04-17T02:33:51.008Z,99.99
2018-04-17T02:34:51.101Z,99.99
2018-04-17T02:35:51.070Z,99.99
2018-04-17T02:36:51.102Z,99.99
2018-04-17T02:37:51.130Z,99.99
2018-04-17T02:38:51.164Z,99.99
2018-04-17T02:39:51.196Z,99.99
2018-04-17T02:40:51.222Z,99.99
2018-04-17T02:41:51.251Z,99.99
2018-04-17T02:42:51.289Z,99.99
2018-04-17T02:43:51.312Z,99.99
2018-04-17T02:44:51.343Z,99.99
2018-04-17T02:45:51.373Z,99.99
2018-04-17T02:46:51.407Z,99.99
2018-04-17T02:47:51.437Z,99.99
2018-04-17T02:48:51.466Z,99.99
2018-04-17T02:49:51.493Z,99.99
2018-04-17T02:50:51.526Z,99.99
2018-04-17T02:51:51.564Z,99.99
2018-04-17T02:52:51.585Z,99.99
2018-04-17T02:53:51.614Z,99.99
2018-04-17T02:54:51.643Z,99.99
2018-04-17T02:55:51.674Z,99.99
2018-04-17T02:56:51.706Z,99.99
2018-04-17T02:57:51.735Z,99.99
2018-04-17T02:58:51.764Z,99.99
2018-04-17T02:59:51.795Z,99.99
2018-04-17T03:00:51.828Z,99.99
2018-04-17T03:01:51.855Z,99.99
2018-04-17T03:02:51.886Z,99.99
2018-04-17T03:03:51.915Z,99.99
2018-04-17T03:04:51.946Z,99.99
2018-04-17T03:05:51.975Z,99.99
2018-04-17T03:06:52.006Z,99.99
2018-04-17T03:07:52.036Z,99.99
2018-04-17T03:08:52.066Z,99.99
2018-04-17T03:09:52.095Z,99.99
2018-04-17T03:10:52.127Z,99.99
2018-04-17T03:11:52.156Z,99.99
2018-04-17T03:12:52.187Z,99.99
2018-04-17T03:13:52.216Z,99.99
2018-04-17T03:14:52.247Z,99.99
2018-04-17T03:15:52.277Z,99.99
2018-04-17T03:16:52.307Z,99.99
2018-04-17T03:17:52.336Z,99.99
2018-04-17T03:18:52.367Z,99.99
2018-04-17T03:19:52.397Z,99.99
2018-04-17T03:20:52.428Z,99.99
2018-04-17T03:21:52.457Z,99.99
2018-04-17T03:22:52.487Z,99.99
2018-04-17T03:23:52.519Z,99.99
2018-04-17T03:24:52.547Z,99.99
2018-04-17T03:25:52.582Z,99.99
2018-04-17T03:26:52.608Z,99.99
2018-04-17T03:27:52.641Z,99.99
2018-04-17T03:28:52.673Z,99.99
2018-04-17T03:29:52.701Z,99.99
2018-04-17T03:30:52.728Z,99.99
2018-04-17T03:31:52.759Z,99.99
2018-04-17T03:32:52.789Z,99.99
2018-04-17T03:33:52.819Z,99.99
2018-04-17T03:34:52.848Z,99.99
2018-04-17T03:35:52.881Z,99.99
2018-04-17T03:36:52.909Z,99.99
2018-04-17T03:37:52.937Z,99.99
2018-04-17T03:38:52.968Z,99.99
2018-04-17T03:39:52.998Z,99.99
2018-04-17T03:40:53.028Z,99.99
2018-04-17T03:41:53.057Z,99.99
2018-04-17T03:42:53.087Z,99.99
2018-04-17T03:43:53.117Z,99.99
2018-04-17T03:44:53.147Z,99.99
2018-04-17T03:45:53.176Z,99.99
2018-04-17T03:46:53.207Z,99.99
2018-04-17T03:47:53.236Z,99.99
2018-04-17T03:48:53.267Z,99.99
2018-04-17T03:49:53.300Z,99.99
2018-04-17T03:50:53.325Z,99.99
2018-04-17T03:51:53.356Z,99.99
2018-04-17T03:52:53.385Z,99.99
2018-04-17T03:53:53.419Z,99.99
2018-04-17T03:54:53.444Z,99.99
2018-04-17T03:55:53.474Z,99.99
2018-04-17T03:56:53.505Z,99.99
2018-04-17T03:57:53.534Z,99.99
2018-04-17T03:58:53.564Z,99.99
2018-04-17T03:59:53.593Z,99.99
2018-04-17T04:00:53.623Z,99.99
2018-04-17T04:01:53.656Z,99.99
2018-04-17T04:02:53.683Z,99.99
2018-04-17T04:03:53.713Z,99.99
2018-04-17T04:04:53.744Z,99.99
2018-04-17T04:05:53.772Z,99.99
2018-04-17T04:06:53.802Z,99.99
2018-04-17T04:07:53.832Z,99.99
2018-04-17T04:08:53.861Z,99.99
2018-04-17T04:09:53.891Z,99.99
2018-04-17T04:10:53.921Z,99.99
2018-04-17T04:11:53.951Z,99.99
2018-04-17T04:12:53.981Z,99.99
2018-04-17T04:13:54.010Z,99.99
2018-04-17T04:14:54.040Z,99.99
2018-04-17T04:15:54.069Z,99.99
2018-04-17T04:16:54.100Z,99.99
2018-04-17T04:17:54.132Z,99.99
2018-04-17T04:18:54.158Z,99.99
2018-04-17T04:19:54.188Z,99.99
2018-04-17T04:20:54.219Z,99.99
2018-04-17T04:21:54.247Z,99.99
2018-04-17T04:22:54.281Z,99.99
2018-04-17T04:23:54.306Z,99.99
2018-04-17T04:24:54.338Z,99.99
2018-04-17T04:25:54.364Z,99.99
2018-04-17T04:26:54.395Z,99.99
2018-04-17T04:27:54.425Z,99.99
2018-04-17T04:28:54.455Z,99.99
2018-04-17T04:29:54.483Z,99.99
2018-04-17T04:30:54.513Z,99.99
2018-04-17T04:31:54.543Z,99.99
2018-04-17T04:32:54.573Z,99.99
2018-04-17T04:33:54.602Z,99.99
2018-04-17T04:34:54.631Z,99.99
2018-04-17T04:35:54.661Z,99.99
2018-04-17T04:36:54.691Z,99.99
2018-04-17T04:37:54.720Z,99.99
2018-04-17T04:38:54.750Z,99.99
2018-04-17T04:39:54.780Z,99.99
2018-04-17T04:40:54.812Z,99.99
2018-04-17T04:41:54.839Z,99.99
2018-04-17T04:42:54.868Z,99.99
2018-04-17T04:43:54.897Z,99.99
2018-04-17T04:44:54.927Z,99.99
2018-04-17T04:45:54.958Z,99.99
2018-04-17T04:46:54.987Z,99.99
2018-04-17T04:47:55.017Z,99.99
2018-04-17T04:48:55.046Z,99.99
2018-04-17T04:49:55.075Z,99.99
2018-04-17T04:50:55.105Z,99.99
2018-04-17T04:51:55.135Z,99.99
2018-04-17T04:52:55.165Z,99.99
2018-04-17T04:53:55.193Z,99.99
2018-04-17T04:54:55.223Z,99.99
2018-04-17T04:55:55.253Z,99.99
2018-04-17T04:56:55.284Z,99.99
2018-04-17T04:57:55.312Z,99.99
2018-04-17T04:58:55.342Z,99.99
2018-04-17T04:59:55.373Z,99.99
2018-04-17T05:00:55.402Z,99.99
2018-04-17T05:01:55.431Z,99.99
2018-04-17T05:02:55.461Z,99.99
2018-04-17T05:03:55.490Z,99.99
2018-04-17T05:04:55.524Z,99.99
2018-04-17T05:05:55.549Z,99.99
2018-04-17T05:06:55.579Z,99.99
2018-04-17T05:07:55.609Z,99.99
2018-04-17T05:08:55.639Z,99.99
2018-04-17T05:09:55.668Z,99.99
2018-04-17T05:10:55.702Z,99.99
2018-04-17T05:11:55.728Z,99.99
2018-04-17T05:12:55.794Z,99.99
2018-04-17T05:13:55.786Z,99.99
2018-04-17T05:14:55.816Z,99.99
2018-04-17T05:15:55.845Z,99.99
2018-04-17T05:16:55.876Z,99.99
2018-04-17T05:17:55.905Z,99.99
2018-04-17T05:18:55.935Z,99.99
2018-04-17T05:19:55.965Z,99.99
2018-04-17T05:20:55.996Z,99.99
2018-04-17T05:21:56.023Z,99.99
2018-04-17T05:22:56.054Z,99.99
2018-04-17T05:23:56.085Z,99.99
2018-04-17T05:24:56.115Z,99.99
2018-04-17T05:25:56.143Z,99.99
2018-04-17T05:26:56.175Z,99.99
2018-04-17T05:27:56.203Z,99.99
2018-04-17T05:28:56.233Z,99.99
2018-04-17T05:29:56.262Z,99.99
2018-04-17T05:30:56.291Z,99.99
2018-04-17T05:31:56.322Z,99.99
2018-04-17T05:32:56.353Z,99.99
2018-04-17T05:33:56.382Z,99.99
2018-04-17T05:34:56.412Z,99.99
2018-04-17T05:35:56.447Z,99.99
2018-04-17T05:36:56.471Z,99.99
2018-04-17T05:37:56.501Z,99.99
2018-04-17T05:38:56.531Z,99.99
2018-04-17T05:39:56.562Z,99.99
2018-04-17T05:40:56.591Z,99.99
2018-04-17T05:41:56.622Z,99.99
2018-04-17T05:42:56.652Z,99.99
2018-04-17T05:43:56.682Z,99.99
2018-04-17T05:44:56.712Z,99.99
2018-04-17T05:45:56.742Z,99.99
2018-04-17T05:46:56.800Z,99.99
2018-04-17T05:47:56.829Z,99.99
2018-04-17T05:48:56.833Z,99.99
2018-04-17T05:49:56.862Z,99.99
2018-04-17T05:50:56.892Z,99.99
2018-04-17T05:51:56.924Z,99.99
2018-04-17T05:52:56.954Z,99.99
2018-04-17T05:53:56.984Z,99.99
2018-04-17T05:54:57.014Z,99.99
2018-04-17T05:55:57.115Z,99.99
2018-04-17T05:56:57.077Z,99.99
2018-04-17T05:57:57.106Z,99.99
2018-04-17T05:58:57.136Z,99.99
2018-04-17T05:59:57.190Z,99.99
2018-04-17T06:00:57.198Z,99.99
2018-04-17T06:01:57.233Z,99.99
2018-04-17T06:02:57.259Z,99.99
2018-04-17T06:03:57.289Z,99.99
2018-04-17T06:04:57.320Z,99.99
2018-04-17T06:05:57.350Z,99.99
2018-04-17T06:06:57.381Z,99.99
2018-04-17T06:07:57.412Z,99.99
2018-04-17T06:08:57.443Z,99.99
2018-04-17T06:09:57.473Z,99.99
2018-04-17T06:10:57.509Z,99.99
2018-04-17T06:11:57.536Z,99.99
2018-04-17T06:12:57.627Z,99.99
2018-04-17T06:13:57.596Z,99.99
2018-04-17T06:14:57.627Z,99.99
2018-04-17T06:15:57.659Z,99.99
2018-04-17T06:16:57.690Z,99.99
2018-04-17T06:17:57.720Z,99.99
2018-04-17T06:18:57.751Z,99.99
2018-04-17T06:19:57.783Z,99.99
2018-04-17T06:20:57.814Z,99.99
2018-04-17T06:21:57.844Z,99.99
2018-04-17T06:22:57.876Z,99.99
2018-04-17T06:23:57.907Z,99.99
2018-04-17T06:24:57.938Z,99.99
2018-04-17T06:25:57.969Z,99.99
2018-04-17T06:26:58.000Z,99.99
2018-04-17T06:27:58.032Z,99.99
2018-04-17T06:28:58.063Z,99.99
2018-04-17T06:29:58.094Z,99.99
2018-04-17T06:30:58.125Z,99.99
2018-04-17T06:31:58.157Z,99.99
2018-04-17T06:32:58.188Z,99.99
2018-04-17T06:33:58.218Z,99.99
2018-04-17T06:34:58.250Z,99.99
2018-04-17T06:35:58.282Z,99.99
2018-04-17T06:36:58.318Z,99.99
2018-04-17T06:37:58.344Z,99.99
2018-04-17T06:38:58.376Z,99.99
2018-04-17T06:39:58.407Z,99.99
2018-04-17T06:40:58.444Z,99.99
2018-04-17T06:41:58.526Z,99.99
2018-04-17T06:42:58.503Z,99.99
2018-04-17T06:43:58.536Z,99.99
2018-04-17T06:44:58.567Z,99.99
2018-04-17T06:45:58.600Z,99.99
2018-04-17T06:46:58.632Z,99.99
2018-04-17T06:47:58.662Z,99.99
2018-04-17T06:48:58.695Z,99.99
2018-04-17T06:49:58.726Z,99.99
2018-04-17T06:50:58.763Z,99.99
2018-04-17T06:51:58.790Z,99.99
2018-04-17T06:52:58.823Z,99.99
2018-04-17T06:53:58.858Z,99.99
2018-04-17T06:54:58.889Z,99.99
2018-04-17T06:55:58.919Z,99.99
2018-04-17T06:56:58.952Z,99.99
2018-04-17T06:57:58.986Z,99.99
2018-04-17T06:58:59.015Z,99.99
2018-04-17T06:59:59.051Z,99.99
2018-04-17T07:00:59.085Z,99.66
2018-04-17T07:01:59.113Z,99.43
2018-04-17T07:02:59.145Z,99.62
2018-04-17T07:03:59.179Z,99.14
2018-04-17T07:04:59.211Z,98.28
2018-04-17T07:05:59.243Z,98.08
2018-04-17T07:06:59.277Z,97.80
2018-04-17T07:07:59.309Z,97.80
2018-04-17T07:08:59.342Z,97.42
2018-04-17T07:09:59.375Z,97.42
2018-04-17T07:10:59.408Z,97.28
2018-04-17T07:11:59.440Z,96.89
2018-04-17T07:12:59.474Z,96.89
2018-04-17T07:13:59.506Z,96.13
2018-04-17T07:14:59.538Z,96.13
2018-04-17T07:15:59.573Z,95.56
2018-04-17T07:16:59.652Z,95.56
2018-04-17T07:17:59.638Z,94.84
2018-04-17T07:18:59.673Z,94.46
2018-04-17T07:19:59.705Z,94.26
2018-04-17T07:20:59.743Z,93.40
2018-04-17T07:21:59.772Z,92.64
2018-04-17T07:22:59.805Z,91.97
2018-04-17T07:23:59.839Z,91.59
2018-04-17T07:24:59.885Z,91.25
2018-04-17T07:25:59.905Z,91.06
2018-04-17T07:26:59.940Z,90.10
2018-04-17T07:27:59.974Z,90.01
2018-04-17T07:29:00.008Z,90.10
2018-04-17T07:30:00.041Z,90.10
2018-04-17T07:31:00.078Z,89.34
2018-04-17T07:32:00.110Z,88.81
2018-04-17T07:33:00.143Z,88.33
2018-04-17T07:34:00.177Z,88.71
2018-04-17T07:35:00.210Z,86.80
2018-04-17T07:36:00.245Z,86.90
2018-04-17T07:37:00.279Z,86.17
2018-04-17T07:38:00.312Z,86.36
2018-04-17T07:39:00.348Z,86.36
2018-04-17T07:40:00.383Z,85.50
2018-04-17T07:41:00.417Z,85.41
2018-04-17T07:42:00.451Z,85.02
2018-04-17T07:43:00.487Z,84.74
2018-04-17T07:44:00.588Z,83.97
2018-04-17T07:45:00.606Z,83.11
2018-04-17T07:46:00.599Z,82.34
2018-04-17T07:47:00.625Z,82.57
2018-04-17T07:48:00.714Z,82.48
2018-04-17T07:49:00.695Z,82.29
2018-04-17T07:50:00.730Z,81.33
2018-04-17T07:51:00.771Z,80.85
2018-04-17T07:52:00.804Z,81.81
2018-04-17T07:53:00.837Z,82.04
2018-04-17T07:54:00.872Z,80.32
2018-04-17T07:55:00.906Z,80.89
2018-04-17T07:56:00.951Z,79.74
2018-04-17T07:57:00.987Z,79.45
2018-04-17T07:58:01.013Z,79.45
2018-04-17T07:59:01.050Z,78.69
2018-04-17T08:00:01.087Z,78.40
2018-04-17T08:01:01.121Z,78.59
2018-04-17T08:02:01.155Z,78.59
2018-04-17T08:03:01.201Z,78.88
2018-04-17T08:04:01.228Z,79.83
2018-04-17T08:05:01.264Z,78.02
2018-04-17T08:06:01.298Z,77.63
2018-04-17T08:07:01.335Z,78.25
2018-04-17T08:08:01.379Z,77.58
2018-04-17T08:09:01.407Z,77.34
2018-04-17T08:10:01.443Z,77.86
2018-04-17T08:11:01.478Z,77.95
2018-04-17T08:12:01.516Z,76.52
2018-04-17T08:13:01.557Z,75.89
2018-04-17T08:14:01.588Z,74.22
2018-04-17T08:15:01.629Z,74.26
2018-04-17T08:16:01.662Z,73.68
2018-04-17T08:17:01.699Z,73.20
2018-04-17T08:18:01.733Z,73.30
2018-04-17T08:19:01.770Z,73.00
2018-04-17T08:20:01.807Z,72.43
2018-04-17T08:21:01.844Z,72.53
2018-04-17T08:22:01.880Z,71.37
2018-04-17T08:23:01.917Z,71.31
2018-04-17T08:24:01.954Z,70.99
2018-04-17T08:25:01.991Z,70.74
2018-04-17T08:26:02.027Z,71.76
2018-04-17T08:27:02.065Z,72.33
2018-04-17T08:28:02.101Z,72.33
2018-04-17T08:29:02.138Z,72.33
2018-04-17T08:30:02.176Z,71.89
2018-04-17T08:31:02.211Z,71.41
2018-04-17T08:32:02.249Z,70.45
2018-04-17T08:33:02.287Z,71.22
2018-04-17T08:34:02.323Z,70.84
2018-04-17T08:35:02.360Z,71.12
2018-04-17T08:36:02.397Z,71.70
2018-04-17T08:37:02.474Z,72.85
2018-04-17T08:38:02.471Z,71.70
2018-04-17T08:39:02.509Z,70.74
2018-04-17T08:40:02.548Z,71.03
2018-04-17T08:41:02.586Z,70.55
2018-04-17T08:42:02.621Z,70.10
2018-04-17T08:43:02.662Z,69.91
2018-04-17T08:44:02.696Z,69.81
2018-04-17T08:45:02.736Z,70.10
2018-04-17T08:46:02.774Z,70.10
2018-04-17T08:47:02.810Z,69.53
2018-04-17T08:48:02.850Z,69.34
2018-04-17T08:49:02.887Z,69.43
2018-04-17T08:50:02.923Z,68.89
2018-04-17T08:51:02.962Z,69.37
2018-04-17T08:52:02.999Z,69.24
2018-04-17T08:53:03.037Z,69.05
2018-04-17T08:54:03.075Z,69.91
2018-04-17T08:55:03.114Z,69.62
2018-04-17T08:56:03.152Z,70.20
2018-04-17T08:57:03.190Z,69.27
2018-04-17T08:58:03.226Z,68.51
2018-04-17T08:59:03.266Z,68.15
2018-04-17T09:00:03.304Z,67.29
2018-04-17T09:01:03.342Z,66.33
2018-04-17T09:02:03.380Z,68.06
2018-04-17T09:03:03.419Z,65.78
2018-04-17T09:04:03.458Z,65.69
2018-04-17T09:05:03.496Z,67.58
2018-04-17T09:06:03.534Z,66.17
2018-04-17T09:07:03.573Z,66.52
2018-04-17T09:08:03.612Z,66.81
2018-04-17T09:09:03.650Z,65.84
2018-04-17T09:10:03.689Z,65.01
2018-04-17T09:11:03.728Z,64.95
2018-04-17T09:12:03.766Z,63.76
2018-04-17T09:13:03.806Z,64.92
2018-04-17T09:14:03.843Z,65.50
2018-04-17T09:15:03.884Z,64.05
2018-04-17T09:16:03.921Z,63.76
2018-04-17T09:17:04.013Z,62.99
2018-04-17T09:18:03.999Z,62.45
2018-04-17T09:19:04.045Z,61.97
2018-04-17T09:20:04.079Z,62.35
2018-04-17T09:21:04.116Z,61.42
2018-04-17T09:22:04.156Z,61.22
2018-04-17T09:23:04.203Z,61.71
2018-04-17T09:24:04.236Z,60.84
2018-04-17T09:25:04.280Z,62.09
2018-04-17T09:26:04.314Z,61.68
2018-04-17T09:27:04.363Z,61.90
2018-04-17T09:28:04.393Z,62.48
2018-04-17T09:29:04.432Z,62.29
2018-04-17T09:30:04.472Z,61.61
2018-04-17T09:31:04.511Z,61.04
2018-04-17T09:32:04.552Z,60.39
2018-04-17T09:33:04.592Z,56.88
2018-04-17T09:34:04.632Z,55.01
2018-04-17T09:35:04.672Z,51.85
2018-04-17T09:36:04.786Z,51.13
2018-04-17T09:37:04.754Z,49.56
2018-04-17T09:38:04.794Z,47.02
2018-04-17T09:39:04.837Z,45.17
2018-04-17T09:40:04.879Z,46.36
2018-04-17T09:41:04.925Z,44.07
2018-04-17T09:42:04.965Z,42.44
2018-04-17T09:43:05.009Z,42.50
2018-04-17T09:44:05.053Z,43.40
2018-04-17T09:45:05.097Z,43.10
2018-04-17T09:46:05.143Z,41.36
2018-04-17T09:47:05.188Z,41.20
2018-04-17T09:48:05.235Z,39.82
2018-04-17T09:49:05.281Z,39.55
2018-04-17T09:50:05.327Z,38.73
2018-04-17T09:51:05.373Z,37.58
2018-04-17T09:52:05.421Z,37.27
2018-04-17T09:53:05.469Z,38.34
2018-04-17T09:54:05.516Z,37.93
2018-04-17T09:55:05.567Z,38.91
2018-04-17T09:56:05.614Z,37.14
2018-04-17T09:57:05.662Z,39.76
2018-04-17T09:58:05.711Z,38.17
2018-04-17T09:59:05.761Z,36.10
2018-04-17T10:00:05.810Z,34.24
2018-04-17T10:01:05.861Z,33.75
2018-04-17T10:02:05.909Z,32.52
2018-04-17T10:03:05.959Z,34.52
2018-04-17T10:04:06.010Z,33.85
2018-04-17T10:05:06.061Z,32.58
2018-04-17T10:06:06.111Z,32.03
2018-04-17T10:07:06.162Z,31.25
2018-04-17T10:08:06.213Z,30.58
2018-04-17T10:09:06.286Z,28.85
2018-04-17T10:10:06.315Z,28.29
2018-04-17T10:11:06.366Z,28.40
2018-04-17T10:12:06.417Z,28.50
2018-04-17T10:13:06.469Z,28.89
2018-04-17T10:14:06.520Z,29.35
2018-04-17T10:15:06.572Z,28.83
2018-04-17T10:16:06.623Z,30.90
2018-04-17T10:17:06.678Z,29.63
2018-04-17T10:18:06.728Z,29.59
2018-04-17T10:19:06.781Z,29.13
2018-04-17T10:20:06.836Z,30.68
2018-04-17T10:21:06.886Z,29.91
2018-04-17T10:22:06.937Z,28.34
2018-04-17T10:23:06.992Z,31.64
2018-04-17T10:24:07.043Z,29.71
2018-04-17T10:25:07.096Z,28.58
2018-04-17T10:26:07.148Z,28.50
2018-04-17T10:27:07.204Z,27.55
2018-04-17T10:28:07.255Z,26.70
2018-04-17T10:29:07.310Z,27.53
2018-04-17T10:30:07.360Z,29.45
2018-04-17T10:31:07.413Z,29.17
2018-04-17T10:32:07.471Z,29.56
2018-04-17T10:33:07.521Z,28.86
2018-04-17T10:34:07.572Z,29.71
2018-04-17T10:35:07.627Z,29.53
2018-04-17T10:36:07.680Z,28.58
2018-04-17T10:37:07.734Z,28.26
2018-04-17T10:38:07.787Z,27.42
2018-04-17T10:39:07.841Z,27.34
2018-04-17T10:40:07.895Z,26.79
2018-04-17T10:41:07.948Z,26.78
2018-04-17T10:42:08.001Z,30.00
2018-04-17T10:43:08.055Z,31.74
2018-04-17T10:44:08.110Z,32.23
2018-04-17T10:45:08.164Z,31.54
2018-04-17T10:46:08.224Z,30.49
2018-04-17T10:47:08.271Z,29.17
2018-04-17T10:48:08.325Z,28.49
2018-04-17T10:49:08.379Z,29.45
2018-04-17T10:50:08.436Z,29.73
2018-04-17T10:51:08.487Z,29.80
2018-04-17T10:52:08.542Z,30.00
2018-04-17T10:53:08.596Z,28.85
2018-04-17T10:54:08.650Z,28.59
2018-04-17T10:55:08.717Z,27.55
2018-04-17T10:56:08.760Z,27.14
2018-04-17T10:57:08.816Z,27.34
2018-04-17T10:58:08.868Z,27.72
2018-04-17T10:59:08.923Z,28.29
2018-04-17T11:00:08.978Z,29.94
2018-04-17T11:01:09.033Z,28.51
2018-04-17T11:02:09.087Z,26.70
2018-04-17T11:03:09.161Z,24.77
2018-04-17T11:04:09.207Z,25.15
2018-04-17T11:05:09.252Z,24.58
2018-04-17T11:06:09.309Z,24.85
2018-04-17T11:07:09.362Z,25.34
2018-04-17T11:08:09.417Z,23.80
2018-04-17T11:09:09.472Z,23.41
2018-04-17T11:10:09.528Z,23.58
2018-04-17T11:11:09.581Z,24.92
2018-04-17T11:12:09.637Z,26.35
2018-04-17T11:13:09.694Z,28.72
2018-04-17T11:14:09.747Z,28.20
2018-04-17T11:15:09.806Z,27.25
2018-04-17T11:16:09.859Z,27.57
2018-04-17T11:17:09.913Z,26.21
2018-04-17T11:18:09.979Z,25.55
2018-04-17T11:19:10.025Z,24.96
2018-04-17T11:20:10.081Z,24.95
2018-04-17T11:21:10.137Z,24.08
2018-04-17T11:22:10.191Z,23.31
2018-04-17T11:23:10.466Z,23.61
2018-04-17T11:24:10.356Z,23.04
2018-04-17T11:25:10.362Z,23.20
2018-04-17T11:26:10.414Z,23.04
2018-04-17T11:27:10.473Z,23.63
2018-04-17T11:28:10.525Z,24.41
2018-04-17T11:29:10.583Z,23.24
2018-04-17T11:30:10.637Z,23.16
2018-04-17T11:31:10.693Z,23.06
2018-04-17T11:32:10.749Z,22.38
2018-04-17T11:33:10.805Z,21.21
2018-04-17T11:34:10.860Z,20.94
2018-04-17T11:35:10.917Z,21.13
2018-04-17T11:36:10.974Z,20.65
2018-04-17T11:37:11.030Z,20.26
2018-04-17T11:38:11.086Z,20.34
2018-04-17T11:39:11.147Z,22.41
2018-04-17T11:40:11.199Z,23.30
2018-04-17T11:41:11.255Z,23.21
2018-04-17T11:42:11.326Z,22.26
2018-04-17T11:43:11.367Z,21.60
2018-04-17T11:44:11.423Z,21.08
2018-04-17T11:45:11.479Z,21.21
2018-04-17T11:46:11.534Z,21.88
2018-04-17T11:47:11.591Z,21.39
2018-04-17T11:48:11.647Z,20.91
2018-04-17T11:49:11.703Z,21.10
2018-04-17T11:50:11.758Z,22.24
2018-04-17T11:51:11.815Z,22.45
2018-04-17T11:52:11.871Z,21.31
2018-04-17T11:53:11.926Z,21.19
2018-04-17T11:54:11.983Z,20.91
2018-04-17T11:55:12.040Z,22.06
2018-04-17T11:56:12.095Z,23.96
2018-04-17T11:57:12.151Z,24.27
2018-04-17T11:58:12.207Z,23.64
2018-04-17T11:59:12.262Z,21.57
2018-04-17T12:00:12.320Z,21.11
2018-04-17T12:01:12.376Z,21.97
2018-04-17T12:02:12.430Z,22.81
2018-04-17T12:03:12.488Z,22.23
2018-04-17T12:04:12.544Z,23.66
2018-04-17T12:05:12.646Z,23.02
2018-04-17T12:06:12.658Z,21.08
2018-04-17T12:07:12.715Z,21.07
2018-04-17T12:08:12.771Z,21.46
2018-04-17T12:09:12.827Z,21.19
2018-04-17T12:10:12.883Z,20.51
2018-04-17T12:11:12.941Z,21.21
2018-04-17T12:12:12.996Z,21.36
2018-04-17T12:13:13.052Z,21.95
2018-04-17T12:14:13.108Z,20.41
2018-04-17T12:15:13.165Z,20.39
2018-04-17T12:16:13.220Z,21.17
2018-04-17T12:17:13.283Z,21.18
2018-04-17T12:18:13.333Z,20.32
2018-04-17T12:19:13.389Z,19.06
2018-04-17T12:20:13.448Z,18.57
2018-04-17T12:21:13.503Z,18.85
2018-04-17T12:22:13.557Z,18.48
2018-04-17T12:23:13.614Z,18.30
2018-04-17T12:24:13.670Z,17.03
2018-04-17T12:25:13.727Z,16.05
2018-04-17T12:26:13.781Z,18.85
2018-04-17T12:27:13.838Z,18.95
2018-04-17T12:28:13.895Z,19.84
2018-04-17T12:29:13.952Z,20.32
2018-04-17T12:30:14.008Z,19.82
2018-04-17T12:31:14.064Z,19.73
2018-04-17T12:32:14.121Z,20.59
2018-04-17T12:33:14.181Z,21.07
2018-04-17T12:34:14.234Z,20.39
2018-04-17T12:35:14.291Z,20.57
2018-04-17T12:36:14.348Z,20.96
2018-04-17T12:37:14.404Z,21.42
2018-04-17T12:38:14.461Z,22.20
2018-04-17T12:39:14.526Z,23.18
2018-04-17T12:40:14.576Z,23.95
2018-04-17T12:41:14.633Z,23.74
2018-04-17T12:42:14.689Z,22.88
2018-04-17T12:43:14.746Z,23.18
2018-04-17T12:44:14.802Z,22.10
2018-04-17T12:45:14.860Z,22.11
2018-04-17T12:46:14.917Z,23.16
2018-04-17T12:47:14.975Z,22.49
2018-04-17T12:48:15.030Z,22.88
2018-04-17T12:49:15.087Z,22.41
2018-04-17T12:50:15.143Z,20.99
2018-04-17T12:51:15.202Z,19.63
2018-04-17T12:52:15.256Z,20.01
2018-04-17T12:53:15.315Z,19.44